createdAt,value
2019-06-26T00:00:10.109Z,99.90
2019-06-26T00:02:38.724Z,99.90
2019-06-26T00:05:08.137Z,99.90
2019-06-26T00:07:36.764Z,99.90
2019-06-26T00:10:06.896Z,99.90
2019-06-26T00:12:35.596Z,99.90
2019-06-26T00:15:08.401Z,99.90
2019-06-26T00:17:37.106Z,99.90
2019-06-26T00:20:06.917Z,99.90
2019-06-26T00:22:35.598Z,99.90
2019-06-26T00:25:06.366Z,99.90
2019-06-26T00:27:35.043Z,99.90
2019-06-26T00:30:07.747Z,99.90
2019-06-26T00:32:36.382Z,99.90
2019-06-26T00:35:05.902Z,99.90
2019-06-26T00:37:34.634Z,99.90
2019-06-26T00:40:04.057Z,99.90
2019-06-26T00:42:32.617Z,99.90
2019-06-26T00:45:01.206Z,99.90
2019-06-26T00:47:29.873Z,99.90
2019-06-26T00:49:58.458Z,99.90
2019-06-26T00:52:27.014Z,99.90
2019-06-26T00:54:55.703Z,99.90
2019-06-26T00:57:24.286Z,99.90
2019-06-26T00:59:52.938Z,99.90
2019-06-26T01:02:21.863Z,99.90
2019-06-26T01:05:04.326Z,99.90
2019-06-26T01:07:32.916Z,99.90
2019-06-26T01:10:01.502Z,99.90
2019-06-26T01:12:30.070Z,99.90
2019-06-26T01:14:58.657Z,99.90
2019-06-26T01:17:27.248Z,99.90
2019-06-26T01:19:55.834Z,99.90
2019-06-26T01:22:24.388Z,99.90
2019-06-26T01:24:53.033Z,99.90
2019-06-26T01:27:21.690Z,99.90
2019-06-26T01:29:50.341Z,99.90
2019-06-26T01:32:18.908Z,99.90
2019-06-26T01:34:47.498Z,99.90
2019-06-26T01:37:16.252Z,99.90
2019-06-26T01:39:44.828Z,99.90
2019-06-26T01:42:13.447Z,99.90
2019-06-26T01:44:42.026Z,99.90
2019-06-26T01:47:10.617Z,99.90
2019-06-26T01:49:39.164Z,99.90
2019-06-26T01:52:07.821Z,99.90
2019-06-26T01:54:36.369Z,99.90
2019-06-26T01:57:05.088Z,99.90
2019-06-26T01:59:33.649Z,99.90
2019-06-26T02:02:02.240Z,99.90
2019-06-26T02:04:31.346Z,99.90
2019-06-26T02:06:59.971Z,99.90
2019-06-26T02:09:28.525Z,99.90
2019-06-26T02:12:00.358Z,99.90
2019-06-26T02:14:31.488Z,99.90
2019-06-26T02:16:57.846Z,99.90
2019-06-26T02:19:26.417Z,99.90
2019-06-26T02:21:55.166Z,99.90
2019-06-26T02:24:23.720Z,99.90
2019-06-26T02:26:52.377Z,99.90
2019-06-26T02:29:21.028Z,99.90
2019-06-26T02:31:49.615Z,99.90
2019-06-26T02:34:18.208Z,99.90
2019-06-26T02:36:46.761Z,99.90
2019-06-26T02:39:15.450Z,99.90
2019-06-26T02:41:44.205Z,99.90
2019-06-26T02:44:12.741Z,99.90
2019-06-26T02:46:41.457Z,99.90
2019-06-26T02:49:10.154Z,99.90
2019-06-26T02:51:38.882Z,99.90
2019-06-26T02:54:07.508Z,99.90
2019-06-26T02:56:36.082Z,99.90
2019-06-26T02:59:05.022Z,99.90
2019-06-26T03:01:33.668Z,99.90
2019-06-26T03:04:02.262Z,99.90
2019-06-26T03:06:31.008Z,99.90
2019-06-26T03:08:59.555Z,99.90
2019-06-26T03:11:28.211Z,99.90
2019-06-26T03:13:56.827Z,99.90
2019-06-26T03:16:25.418Z,99.90
2019-06-26T03:18:54.040Z,99.90
2019-06-26T03:21:22.797Z,99.90
2019-06-26T03:23:51.423Z,99.90
2019-06-26T03:26:20.090Z,99.90
2019-06-26T03:28:48.638Z,99.90
2019-06-26T03:31:17.231Z,99.90
2019-06-26T03:33:45.782Z,99.90
2019-06-26T03:36:14.377Z,99.90
2019-06-26T03:38:42.936Z,99.90
2019-06-26T03:41:11.584Z,99.90
2019-06-26T03:43:40.132Z,99.90
2019-06-26T03:46:08.880Z,99.90
2019-06-26T03:48:37.439Z,99.90
2019-06-26T03:51:06.093Z,99.90
2019-06-26T03:53:34.650Z,99.90
2019-06-26T03:56:03.301Z,99.90
2019-06-26T03:58:31.867Z,99.90
2019-06-26T04:01:00.524Z,99.90
2019-06-26T04:03:29.084Z,99.90
2019-06-26T04:05:57.668Z,99.90
2019-06-26T04:08:26.223Z,99.90
2019-06-26T04:10:54.840Z,99.90
2019-06-26T04:13:23.421Z,99.90
2019-06-26T04:15:52.052Z,99.90
2019-06-26T04:18:20.632Z,99.90
2019-06-26T04:20:49.255Z,99.90
2019-06-26T04:23:17.905Z,99.90
2019-06-26T04:25:46.465Z,99.90
2019-06-26T04:28:15.064Z,99.90
2019-06-26T04:30:43.608Z,99.90
2019-06-26T04:33:12.183Z,99.90
2019-06-26T04:35:40.797Z,99.90
2019-06-26T04:38:09.518Z,99.90
2019-06-26T04:40:38.073Z,99.90
2019-06-26T04:43:06.720Z,99.90
2019-06-26T04:45:35.408Z,99.90
2019-06-26T04:48:06.985Z,99.90
2019-06-26T04:50:34.324Z,99.90
2019-06-26T04:53:02.911Z,99.90
2019-06-26T04:55:31.532Z,99.90
2019-06-26T04:58:00.257Z,99.90
2019-06-26T05:00:28.815Z,99.90
2019-06-26T05:02:57.528Z,99.90
2019-06-26T05:05:38.878Z,99.90
2019-06-26T05:07:56.381Z,99.90
2019-06-26T05:10:24.929Z,99.90
2019-06-26T05:12:53.508Z,99.90
2019-06-26T05:15:22.241Z,99.90
2019-06-26T05:17:50.896Z,99.90
2019-06-26T05:20:19.581Z,99.90
2019-06-26T05:22:48.173Z,99.90
2019-06-26T05:25:16.820Z,99.90
2019-06-26T05:27:45.448Z,99.90
2019-06-26T05:30:15.634Z,99.90
2019-06-26T05:32:44.212Z,99.90
2019-06-26T05:35:14.224Z,99.90
2019-06-26T05:37:42.778Z,99.90
2019-06-26T05:40:12.488Z,99.90
2019-06-26T05:42:41.131Z,99.90
2019-06-26T05:45:10.864Z,99.90
2019-06-26T05:47:39.468Z,99.90
2019-06-26T05:50:09.386Z,99.90
2019-06-26T05:52:42.015Z,99.90
2019-06-26T05:55:09.064Z,99.90
2019-06-26T05:57:40.851Z,99.90
2019-06-26T06:00:09.968Z,99.90
2019-06-26T06:02:38.523Z,99.90
2019-06-26T06:05:08.643Z,99.90
2019-06-26T06:07:37.312Z,99.90
2019-06-26T06:10:07.856Z,99.90
2019-06-26T06:12:36.500Z,99.90
2019-06-26T06:15:06.889Z,99.90
2019-06-26T06:17:36.010Z,99.90
2019-06-26T06:20:06.530Z,99.90
2019-06-26T06:22:35.152Z,99.90
2019-06-26T06:25:04.186Z,99.90
2019-06-26T06:27:32.732Z,99.90
2019-06-26T06:30:01.403Z,99.90
2019-06-26T06:32:30.005Z,99.90
2019-06-26T06:34:58.564Z,99.90
2019-06-26T06:37:27.159Z,99.90
2019-06-26T06:39:55.717Z,99.90
2019-06-26T06:42:24.376Z,99.90
2019-06-26T06:44:53.020Z,99.90
2019-06-26T06:47:21.592Z,99.90
2019-06-26T06:49:50.179Z,99.90
2019-06-26T06:52:18.829Z,99.90
2019-06-26T06:54:47.476Z,99.90
2019-06-26T06:57:16.032Z,99.90
2019-06-26T06:59:44.584Z,99.90
2019-06-26T07:02:13.243Z,99.90
2019-06-26T07:04:41.864Z,99.90
2019-06-26T07:07:10.448Z,99.90
2019-06-26T07:09:39.071Z,99.90
2019-06-26T07:12:07.805Z,99.90
2019-06-26T07:14:36.422Z,99.90
2019-06-26T07:17:19.275Z,99.90
2019-06-26T07:19:35.284Z,99.90
2019-06-26T07:22:07.106Z,99.90
2019-06-26T07:24:34.137Z,99.90
2019-06-26T07:27:02.803Z,99.90
2019-06-26T07:29:31.380Z,99.90
2019-06-26T07:31:59.940Z,99.90
2019-06-26T07:34:28.521Z,99.90
2019-06-26T07:36:57.197Z,99.90
2019-06-26T07:39:25.849Z,99.90
2019-06-26T07:41:54.402Z,99.90
2019-06-26T07:44:22.980Z,99.90
2019-06-26T07:46:51.690Z,99.90
2019-06-26T07:49:20.391Z,99.90
2019-06-26T07:51:49.082Z,99.90
2019-06-26T07:54:17.765Z,99.90
2019-06-26T07:56:46.357Z,99.90
2019-06-26T07:59:14.900Z,99.90
2019-06-26T08:01:43.562Z,99.90
2019-06-26T08:04:12.259Z,99.90
2019-06-26T08:06:40.897Z,99.90
2019-06-26T08:09:09.581Z,99.90
2019-06-26T08:11:38.240Z,99.90
2019-06-26T08:14:06.938Z,99.90
2019-06-26T08:16:35.520Z,99.90
2019-06-26T08:19:04.248Z,99.90
2019-06-26T08:21:32.896Z,99.90
2019-06-26T08:24:01.544Z,99.90
2019-06-26T08:26:30.240Z,99.90
2019-06-26T08:28:58.814Z,99.90
2019-06-26T08:31:27.437Z,99.90
2019-06-26T08:33:56.037Z,99.90
2019-06-26T08:36:24.664Z,99.90
2019-06-26T08:38:53.236Z,99.90
2019-06-26T08:41:21.798Z,99.90
2019-06-26T08:43:50.448Z,99.90
2019-06-26T08:46:18.996Z,99.90
2019-06-26T08:48:51.585Z,99.90
2019-06-26T08:51:17.953Z,99.90
2019-06-26T08:53:46.550Z,99.90
2019-06-26T08:56:15.098Z,99.90
2019-06-26T08:58:43.749Z,99.90
2019-06-26T09:01:12.308Z,99.90
2019-06-26T09:03:42.101Z,99.90
2019-06-26T09:06:11.203Z,99.90
2019-06-26T09:08:39.892Z,99.90
2019-06-26T09:11:08.542Z,99.90
2019-06-26T09:13:37.116Z,99.90
2019-06-26T09:16:05.754Z,99.90
2019-06-26T09:18:36.144Z,99.90
2019-06-26T09:21:04.728Z,99.90
2019-06-26T09:23:33.372Z,99.90
2019-06-26T09:26:01.935Z,99.90
2019-06-26T09:28:30.563Z,99.90
2019-06-26T09:30:59.129Z,99.90
2019-06-26T09:33:27.747Z,99.90
2019-06-26T09:35:56.335Z,99.90
2019-06-26T09:38:24.951Z,99.90
2019-06-26T09:40:53.502Z,99.90
2019-06-26T09:43:22.105Z,99.90
2019-06-26T09:45:50.740Z,99.90
2019-06-26T09:48:19.427Z,99.90
2019-06-26T09:50:47.987Z,99.90
2019-06-26T09:53:16.567Z,99.90
2019-06-26T09:55:45.236Z,99.90
2019-06-26T09:58:13.876Z,99.90
2019-06-26T10:00:42.580Z,99.90
2019-06-26T10:03:11.291Z,99.90
2019-06-26T10:05:40.445Z,99.90
2019-06-26T10:08:09.105Z,99.90
2019-06-26T10:10:37.720Z,99.90
2019-06-26T10:13:06.446Z,99.90
2019-06-26T10:15:35.158Z,99.90
2019-06-26T10:18:03.903Z,99.90
2019-06-26T10:20:32.437Z,99.90
2019-06-26T10:23:01.056Z,99.90
2019-06-26T10:25:29.636Z,99.90
2019-06-26T10:27:58.286Z,99.90
2019-06-26T10:30:27.008Z,99.90
2019-06-26T10:32:55.651Z,99.90
2019-06-26T10:35:24.289Z,99.90
2019-06-26T10:37:52.947Z,99.90
2019-06-26T10:40:21.684Z,99.90
2019-06-26T10:42:50.233Z,99.90
2019-06-26T10:45:19.073Z,99.90
2019-06-26T10:47:47.667Z,99.90
2019-06-26T10:50:16.996Z,99.90
2019-06-26T10:52:45.694Z,99.90
2019-06-26T10:55:14.825Z,99.90
2019-06-26T10:57:43.391Z,99.90
2019-06-26T11:00:13.978Z,99.90
2019-06-26T11:02:42.938Z,99.90
2019-06-26T11:05:12.452Z,99.90
2019-06-26T11:07:41.079Z,99.90
2019-06-26T11:10:10.811Z,99.90
2019-06-26T11:12:39.386Z,99.90
2019-06-26T11:15:09.018Z,99.90
2019-06-26T11:17:38.222Z,99.90
2019-06-26T11:20:09.551Z,99.90
2019-06-26T11:22:38.283Z,99.90
2019-06-26T11:25:07.788Z,99.90
2019-06-26T11:27:36.487Z,99.90
2019-06-26T11:30:09.790Z,99.90
2019-06-26T11:32:38.556Z,99.90
2019-06-26T11:35:08.144Z,99.90
2019-06-26T11:37:36.942Z,99.90
2019-06-26T11:40:06.675Z,99.90
2019-06-26T11:42:35.499Z,99.90
2019-06-26T11:45:09.203Z,99.90
2019-06-26T11:47:38.305Z,99.90
2019-06-26T11:50:09.130Z,99.90
2019-06-26T11:52:38.047Z,99.90
2019-06-26T11:55:09.176Z,99.90
2019-06-26T11:57:37.794Z,99.90
2019-06-26T12:00:09.649Z,99.90
2019-06-26T12:02:38.342Z,99.90
2019-06-26T12:05:07.929Z,99.90
2019-06-26T12:07:36.561Z,99.90
2019-06-26T12:10:08.528Z,99.90
2019-06-26T12:12:37.472Z,99.90
2019-06-26T12:15:07.298Z,99.90
2019-06-26T12:17:36.009Z,99.90
2019-06-26T12:20:17.671Z,99.90
2019-06-26T12:22:37.141Z,99.90
2019-06-26T12:25:07.184Z,99.90
2019-06-26T12:27:35.975Z,99.90
2019-06-26T12:30:06.983Z,99.90
2019-06-26T12:32:42.345Z,99.90
2019-06-26T12:35:07.157Z,99.90
2019-06-26T12:37:37.956Z,99.90
2019-06-26T12:40:07.622Z,99.90
2019-06-26T12:42:36.354Z,99.90
2019-06-26T12:45:07.736Z,99.90
2019-06-26T12:47:36.421Z,99.90
2019-06-26T12:50:07.617Z,99.90
2019-06-26T12:52:36.558Z,99.90
2019-06-26T12:55:08.476Z,99.90
2019-06-26T12:57:37.196Z,99.90
2019-06-26T13:00:12.101Z,99.90
2019-06-26T13:02:40.901Z,99.90
2019-06-26T13:05:10.423Z,99.90
2019-06-26T13:07:39.088Z,99.90
2019-06-26T13:10:09.280Z,99.90
2019-06-26T13:12:38.024Z,99.90
2019-06-26T13:15:08.826Z,99.90
2019-06-26T13:17:37.572Z,99.90
2019-06-26T13:20:09.934Z,99.90
2019-06-26T13:22:38.910Z,99.90
2019-06-26T13:25:08.451Z,99.90
2019-06-26T13:27:37.105Z,99.90
2019-06-26T13:30:07.471Z,99.90
2019-06-26T13:32:36.120Z,99.90
2019-06-26T13:35:06.249Z,99.90
2019-06-26T13:37:34.912Z,99.90
2019-06-26T13:40:05.249Z,99.90
2019-06-26T13:42:33.828Z,99.90
2019-06-26T13:45:02.556Z,99.90
2019-06-26T13:47:32.056Z,99.90
2019-06-26T13:50:00.616Z,99.90
2019-06-26T13:52:29.227Z,99.90
2019-06-26T13:54:57.861Z,99.90
2019-06-26T13:57:26.518Z,99.90
2019-06-26T13:59:55.016Z,99.90
2019-06-26T14:02:23.637Z,99.90
2019-06-26T14:04:52.669Z,99.90
2019-06-26T14:07:21.315Z,99.20
2019-06-26T14:09:50.032Z,96.00
2019-06-26T14:12:19.402Z,93.10
2019-06-26T14:14:57.529Z,92.90
2019-06-26T14:17:18.478Z,91.70
2019-06-26T14:19:47.372Z,91.70
2019-06-26T14:22:15.934Z,92.20
2019-06-26T14:24:44.713Z,92.40
2019-06-26T14:27:13.428Z,92.30
2019-06-26T14:29:42.105Z,91.60
2019-06-26T14:32:10.740Z,91.70
2019-06-26T14:34:39.321Z,91.50
2019-06-26T14:37:07.950Z,90.10
2019-06-26T14:39:36.541Z,90.70
2019-06-26T14:42:05.166Z,90.10
2019-06-26T14:44:33.752Z,90.50
2019-06-26T14:47:02.444Z,89.60
2019-06-26T14:49:31.040Z,87.80
2019-06-26T14:51:59.663Z,87.20
2019-06-26T14:54:28.261Z,89.00
2019-06-26T14:56:56.800Z,89.30
2019-06-26T14:59:25.369Z,90.10
2019-06-26T15:01:54.020Z,90.90
2019-06-26T15:04:22.581Z,90.50
2019-06-26T15:06:51.236Z,91.60
2019-06-26T15:09:19.797Z,92.30
2019-06-26T15:11:48.452Z,92.70
2019-06-26T15:14:17.081Z,92.30
2019-06-26T15:16:45.669Z,92.70
2019-06-26T15:19:14.295Z,92.60
2019-06-26T15:21:57.500Z,92.50
2019-06-26T15:24:13.081Z,92.60
2019-06-26T15:26:41.669Z,92.40
2019-06-26T15:29:10.291Z,92.10
2019-06-26T15:31:38.949Z,91.40
2019-06-26T15:34:07.501Z,91.80
2019-06-26T15:36:36.169Z,92.20
2019-06-26T15:39:06.855Z,92.80
2019-06-26T15:41:35.468Z,94.00
2019-06-26T15:44:04.361Z,93.30
2019-06-26T15:46:32.928Z,93.80
2019-06-26T15:49:01.526Z,92.60
2019-06-26T15:51:30.079Z,92.80
2019-06-26T15:54:00.050Z,91.50
2019-06-26T15:56:29.007Z,93.10
2019-06-26T15:58:57.608Z,92.50
2019-06-26T16:01:26.241Z,91.80
2019-06-26T16:03:54.820Z,91.60
2019-06-26T16:06:23.403Z,91.30
2019-06-26T16:08:52.156Z,90.50
2019-06-26T16:11:20.721Z,90.70
2019-06-26T16:13:49.323Z,90.00
2019-06-26T16:16:18.019Z,90.00
2019-06-26T16:18:48.255Z,90.90
2019-06-26T16:21:16.901Z,90.10
2019-06-26T16:23:45.486Z,88.80
2019-06-26T16:26:14.112Z,88.30
2019-06-26T16:28:42.745Z,86.70
2019-06-26T16:31:11.329Z,87.00
2019-06-26T16:33:39.897Z,88.10
2019-06-26T16:36:08.564Z,87.90
2019-06-26T16:38:37.248Z,88.10
2019-06-26T16:41:05.885Z,88.90
2019-06-26T16:43:34.491Z,88.70
2019-06-26T16:46:03.154Z,89.20
2019-06-26T16:48:31.780Z,90.20
2019-06-26T16:51:00.441Z,88.70
2019-06-26T16:53:29.021Z,88.40
2019-06-26T16:55:57.754Z,90.20
2019-06-26T16:58:26.425Z,90.00
2019-06-26T17:00:55.053Z,89.60
2019-06-26T17:03:23.784Z,90.90
2019-06-26T17:05:52.518Z,91.60
2019-06-26T17:08:21.105Z,91.30
2019-06-26T17:10:49.661Z,92.30
2019-06-26T17:13:18.309Z,93.40
2019-06-26T17:15:46.938Z,94.10
2019-06-26T17:18:15.589Z,94.00
2019-06-26T17:20:44.177Z,94.70
2019-06-26T17:23:12.796Z,95.40
2019-06-26T17:25:41.460Z,95.40
2019-06-26T17:28:10.022Z,95.00
2019-06-26T17:30:38.665Z,95.80
2019-06-26T17:33:07.253Z,95.90
2019-06-26T17:35:35.813Z,96.30
2019-06-26T17:38:04.477Z,96.10
2019-06-26T17:40:33.042Z,96.60
2019-06-26T17:43:11.995Z,96.40
2019-06-26T17:45:31.828Z,95.90
2019-06-26T17:48:00.434Z,96.40
2019-06-26T17:50:29.064Z,95.70
2019-06-26T17:52:57.617Z,95.70
2019-06-26T17:55:26.213Z,96.50
2019-06-26T17:57:54.842Z,97.50
2019-06-26T18:00:29.175Z,97.50
2019-06-26T18:02:57.870Z,98.30
2019-06-26T18:05:26.541Z,99.10
2019-06-26T18:07:55.104Z,99.90
2019-06-26T18:10:23.722Z,99.90
2019-06-26T18:12:52.329Z,99.90
2019-06-26T18:15:20.972Z,99.90
2019-06-26T18:17:49.891Z,99.90
2019-06-26T18:20:18.587Z,99.90
2019-06-26T18:22:47.285Z,99.90
2019-06-26T18:25:16.730Z,99.90
2019-06-26T18:27:45.705Z,99.90
2019-06-26T18:30:14.629Z,99.90
2019-06-26T18:32:43.321Z,99.90
2019-06-26T18:35:12.054Z,99.90
2019-06-26T18:37:40.705Z,99.90
2019-06-26T18:40:10.303Z,99.90
2019-06-26T18:42:38.922Z,99.90
2019-06-26T18:45:08.045Z,99.90
2019-06-26T18:47:36.652Z,99.90
2019-06-26T18:50:08.588Z,99.90
2019-06-26T18:52:37.181Z,99.90
2019-06-26T18:55:07.009Z,99.90
2019-06-26T18:57:35.748Z,99.90
2019-06-26T19:00:07.000Z,99.90
2019-06-26T19:02:35.671Z,99.90
2019-06-26T19:05:07.164Z,99.90
2019-06-26T19:07:35.886Z,99.90
2019-06-26T19:10:06.911Z,99.90
2019-06-26T19:12:35.530Z,99.90
2019-06-26T19:15:05.103Z,99.90
2019-06-26T19:17:33.685Z,99.90
2019-06-26T19:20:02.365Z,99.90
2019-06-26T19:22:30.924Z,99.90
2019-06-26T19:24:59.527Z,99.90
2019-06-26T19:27:28.100Z,99.90
2019-06-26T19:29:56.693Z,99.90
2019-06-26T19:32:25.393Z,99.90
2019-06-26T19:34:54.050Z,99.90
2019-06-26T19:37:22.658Z,99.90
2019-06-26T19:39:51.220Z,99.90
2019-06-26T19:42:19.840Z,99.90
2019-06-26T19:44:48.429Z,99.90
2019-06-26T19:47:17.053Z,99.90
2019-06-26T19:49:45.636Z,99.90
2019-06-26T19:52:14.197Z,99.90
2019-06-26T19:54:42.787Z,99.90
2019-06-26T19:57:11.415Z,99.90
2019-06-26T19:59:39.999Z,99.90
2019-06-26T20:02:08.920Z,99.90
2019-06-26T20:04:37.549Z,99.90
2019-06-26T20:07:06.285Z,99.90
2019-06-26T20:09:34.901Z,99.90
2019-06-26T20:12:03.624Z,99.90
2019-06-26T20:14:32.362Z,99.90
2019-06-26T20:17:00.915Z,99.90
2019-06-26T20:19:29.500Z,99.90
2019-06-26T20:21:58.093Z,99.90
2019-06-26T20:24:39.631Z,99.90
2019-06-26T20:26:57.082Z,99.90
2019-06-26T20:29:25.673Z,99.90
2019-06-26T20:31:54.346Z,99.90
2019-06-26T20:34:23.007Z,99.90
2019-06-26T20:36:51.556Z,99.90
2019-06-26T20:39:20.148Z,99.90
2019-06-26T20:41:48.814Z,99.90
2019-06-26T20:44:17.509Z,99.90
2019-06-26T20:46:46.101Z,99.90
2019-06-26T20:49:14.661Z,99.90
2019-06-26T20:51:43.255Z,99.90
2019-06-26T20:54:11.882Z,99.90
2019-06-26T20:56:40.541Z,99.90
2019-06-26T20:59:09.088Z,99.90
2019-06-26T21:01:37.813Z,99.90
2019-06-26T21:04:06.532Z,99.90
2019-06-26T21:06:35.125Z,99.90
2019-06-26T21:09:04.775Z,99.90
2019-06-26T21:11:33.360Z,99.90
2019-06-26T21:14:01.915Z,99.90
2019-06-26T21:16:30.578Z,99.90
2019-06-26T21:18:59.205Z,99.90
2019-06-26T21:21:27.922Z,99.90
2019-06-26T21:23:56.603Z,99.90
2019-06-26T21:26:25.445Z,99.90
2019-06-26T21:28:54.414Z,99.90
2019-06-26T21:31:23.137Z,99.90
2019-06-26T21:33:52.007Z,99.90
2019-06-26T21:36:20.545Z,99.90
2019-06-26T21:38:49.201Z,99.90
2019-06-26T21:41:17.861Z,99.90
2019-06-26T21:43:46.454Z,99.90
2019-06-26T21:46:15.017Z,99.90
2019-06-26T21:48:43.605Z,99.90
2019-06-26T21:51:12.198Z,99.90
2019-06-26T21:53:40.781Z,99.90
2019-06-26T21:56:09.411Z,99.90
2019-06-26T21:58:37.969Z,99.90
2019-06-26T22:01:06.715Z,99.90
2019-06-26T22:03:35.333Z,99.90
2019-06-26T22:06:04.005Z,99.90
2019-06-26T22:08:32.657Z,99.90
2019-06-26T22:11:01.394Z,99.90
2019-06-26T22:13:29.945Z,99.90
2019-06-26T22:15:58.565Z,99.90
2019-06-26T22:18:27.215Z,99.90
2019-06-26T22:20:55.773Z,99.90
2019-06-26T22:23:24.516Z,99.90
2019-06-26T22:25:53.248Z,99.90
2019-06-26T22:28:21.841Z,99.90
2019-06-26T22:30:50.468Z,99.90
2019-06-26T22:33:19.185Z,99.90
2019-06-26T22:35:47.920Z,99.90
2019-06-26T22:38:16.481Z,99.90
2019-06-26T22:40:45.067Z,99.90
2019-06-26T22:43:13.692Z,99.90
2019-06-26T22:45:42.440Z,99.90
2019-06-26T22:48:11.085Z,99.90
2019-06-26T22:50:39.716Z,99.90
2019-06-26T22:53:08.305Z,99.90
2019-06-26T22:55:36.896Z,99.90
2019-06-26T22:58:05.561Z,99.90
2019-06-26T23:00:34.318Z,99.90
2019-06-26T23:03:02.877Z,99.90
2019-06-26T23:05:31.601Z,99.90
2019-06-26T23:08:00.195Z,99.90
2019-06-26T23:10:28.763Z,99.90
2019-06-26T23:12:57.418Z,99.90
2019-06-26T23:15:26.122Z,99.90
2019-06-26T23:17:55.178Z,99.90
2019-06-26T23:20:23.728Z,99.90
2019-06-26T23:22:52.324Z,99.90
2019-06-26T23:25:20.957Z,99.90
2019-06-26T23:27:49.536Z,99.90
2019-06-26T23:30:19.240Z,99.90
2019-06-26T23:32:48.275Z,99.90
2019-06-26T23:35:16.973Z,99.90
2019-06-26T23:37:45.689Z,99.90
2019-06-26T23:40:14.505Z,99.90
2019-06-26T23:42:43.093Z,99.90
2019-06-26T23:45:11.927Z,99.90
2019-06-26T23:47:40.476Z,99.90
2019-06-26T23:50:09.485Z,99.90
2019-06-26T23:52:38.036Z,99.90
2019-06-26T23:55:07.961Z,99.90
2019-06-26T23:57:39.600Z,99.90
